Pagina principale
METAR-TAF:

METAR-TAF

Aeroporti :

Guidonia Montecelio, Italia

Aeroporto di Guidonia

latitudine: 42-00N, longitudine: 012-44E, altezza: 88 m

Osservazione

Il bollettino è stato emesso 44 minuti fa, alle 12:55 UTC
Vento 11 kt da ovest/sud-ovest
Temperature 22°C
Umidità 41%
Pressione 1011 hPa
Visibilità 10 km o più
Nubi sparse ad un'altezza di 3500 ft, Cumulo congesto.

METAR: LIRG 191255Z 24011KT 9999 SCT035TCU 22/08 Q1011 RMK BKN SCT200 MON NE CLD CIME VIS MIN 9999 BLU

Ora: 15:39 (13:39 UTC)

Previsione

Il bollettino è stato emesso 2 ore e 39 minuti fa, alle 11:00 UTC
Previsione valida dal 19 alle 12 UTC al 19 alle 21 UTC
Vento 10 kt da ovest/nord-ovest
Visibilità 10 km o più
Nuvoloso ad un'altezza di 3000 ft

TAF: LIRG 191100Z 1912/1921 29010KT 9999 BKN030

Osservazioni e previsioni meteorologiche di più di 4000 aeroporti (messaggi METAR e TAF).

Le stazioni disponibili sono rappresentate dai dischi gialli e rossi sulla carta.

Puntare il mouse per vedere il nome della stazione.

Clicca sopra per visualizzare le osservazioni e previsioni meteorologiche.

Per cambiare la mappa : fare clic sui pulsanti verdi con una croce nera per ingrandire, il pulsante verde con un trattino per diminuire, o sulla freccia verde per le mappe adiacenti.


METAR-TAF: